| time (UTC) | temp F | wind direction | speed MPH | gust MPH | rain 1hr in | rain 24hr in | rain mn in | humidity % | barometer mb |
| 20260507163330 | 58 | 36 | 2.0 | 5.0 | 0.00 | 0.02 | 0.00 | 90 | 1012.7 |
| 20260507161430 | 58 | 8 | 4.0 | 8.0 | 0.00 | 0.03 | 0.00 | 90 | 1013.9 |
| 20260507160431 | 58 | 49 | 5.0 | 8.0 | 0.00 | 0.03 | 0.00 | 91 | 1013.2 |
| 20260507155431 | 59 | 46 | 4.0 | 6.0 | 0.00 | 0.03 | 0.00 | 92 | 1013.2 |
| 20260507154431 | 59 | 64 | 3.0 | 6.0 | 0.00 | 0.03 | 0.00 | 93 | 1013.2 |
| 20260507153529 | 59 | 45 | 2.0 | 4.0 | 0.00 | 0.03 | 0.00 | 95 | 1013.2 |
| 20260507151532 | 58 | 50 | 4.0 | 8.0 | 0.00 | 0.03 | 0.00 | 94 | 1013.5 |
| 20260507150531 | 58 | 26 | 4.0 | 8.0 | 0.00 | 0.03 | 0.00 | 96 | 1013.2 |
| 20260507145530 | 58 | 12 | 3.0 | 5.0 | 0.00 | 0.03 | 0.00 | 96 | 1012.8 |
| 20260507144534 | 57 | 10 | 5.0 | 13.0 | 0.00 | 0.03 | 0.00 | 96 | 1013.2 |
| 20260507143532 | 58 | 45 | 3.0 | 6.0 | 0.00 | 0.03 | 0.00 | 97 | 1013.2 |
| 20260507142533 | 58 | 39 | 3.0 | 8.0 | 0.00 | 0.03 | 0.00 | 96 | 1013.2 |
| 20260507141532 | 58 | 24 | 5.0 | 10.0 | 0.00 | 0.03 | 0.00 | 97 | 1012.4 |
| 20260507140531 | 58 | 26 | 1.0 | 4.0 | 0.00 | 0.03 | 0.00 | 98 | 1012.4 |
| 20260507135531 | 58 | 1 | 3.0 | 6.0 | 0.00 | 0.03 | 0.00 | 98 | 1012.8 |
| 20260507134534 | 58 | 355 | 3.0 | 7.0 | 0.00 | 0.03 | 0.00 | 98 | 1012.1 |
| 20260507133531 | 58 | 46 | 4.0 | 9.0 | 0.00 | 0.03 | 0.00 | 98 | 1012.1 |
| 20260507132531 | 58 | 12 | 4.0 | 7.0 | 0.00 | 0.03 | 0.00 | 98 | 1012.1 |
| 20260507131630 | 58 | 48 | 3.0 | 6.0 | 0.00 | 0.03 | 0.00 | 98 | 1012.1 |
| 20260507130631 | 58 | 12 | 2.0 | 5.0 | 0.00 | 0.03 | 0.00 | 98 | 1012.4 |
| 20260507125730 | 58 | 9 | 5.0 | 11.0 | 0.00 | 0.03 | 0.00 | 98 | 1012.4 |
| 20260507124731 | 58 | 16 | 3.0 | 6.0 | 0.00 | 0.03 | 0.00 | 98 | 1012.4 |
| 20260507123731 | 58 | 5 | 5.0 | 10.0 | 0.00 | 0.03 | 0.00 | 98 | 1011.7 |
| 20260507122730 | 58 | 12 | 5.0 | 11.0 | 0.00 | 0.03 | 0.00 | 98 | 1012.1 |
| 20260507121829 | 58 | 15 | 4.0 | 10.0 | 0.00 | 0.03 | 0.00 | 98 | 1011.7 |
| 20260507120832 | 57 | 31 | 4.0 | 6.0 | 0.00 | 0.03 | 0.00 | 98 | 1011.1 |
| 20260507115831 | 57 | 33 | 3.0 | 7.0 | 0.00 | 0.03 | 0.00 | 98 | 1011.1 |
| 20260507114830 | 57 | 1 | 2.0 | 6.0 | 0.00 | 0.03 | 0.00 | 98 | 1011.7 |
| 20260507113829 | 57 | 18 | 1.0 | 8.0 | 0.00 | 0.03 | 0.00 | 98 | 1011.4 |
| 20260507112831 | 57 | 9 | 4.0 | 7.0 | 0.00 | 0.03 | 0.00 | 98 | 1011.1 |
| 20260507111835 | 57 | 34 | 4.0 | 8.0 | 0.00 | 0.03 | 0.00 | 98 | 1011.1 |
| 20260507110831 | 57 | 3 | 2.0 | 5.0 | 0.00 | 0.03 | 0.00 | 98 | 1011.1 |
| 20260507105831 | 57 | 16 | 4.0 | 9.0 | 0.00 | 0.03 | 0.00 | 98 | 1011.1 |
| 20260507104831 | 57 | 30 | 5.0 | 10.0 | 0.00 | 0.03 | 0.00 | 98 | 1011.1 |
| 20260507103930 | 57 | 50 | 4.0 | 7.0 | 0.00 | 0.03 | 0.00 | 98 | 1011.1 |
| 20260507102930 | 57 | 38 | 5.0 | 8.0 | 0.00 | 0.03 | 0.00 | 98 | 1010.4 |
| 20260507101930 | 57 | 42 | 5.0 | 8.0 | 0.00 | 0.03 | 0.00 | 98 | 1010.7 |
| 20260507101029 | 58 | 58 | 4.0 | 8.0 | 0.00 | 0.03 | 0.00 | 98 | 1011.1 |
| 20260507095129 | 58 | 53 | 1.0 | 5.0 | 0.00 | 0.03 | 0.00 | 98 | 1010.4 |
| 20260507094132 | 58 | 31 | 4.0 | 6.0 | 0.00 | 0.03 | 0.00 | 98 | 1010.4 |
| 20260507093131 | 58 | 8 | 3.0 | 5.0 | 0.00 | 0.03 | 0.00 | 98 | 1010.1 |
| 20260507092229 | 58 | 22 | 3.0 | 6.0 | 0.00 | 0.03 | 0.00 | 97 | 1010.4 |
| 20260507090230 | 58 | 8 | 2.0 | 5.0 | 0.00 | 0.03 | 0.00 | 97 | 1010.1 |
| 20260507085230 | 58 | 35 | 1.0 | 3.0 | 0.00 | 0.03 | 0.00 | 96 | 1009.7 |
| 20260507084229 | 58 | 22 | 2.0 | 4.0 | 0.00 | 0.03 | 0.00 | 96 | 1010.1 |
| 20260507083230 | 58 | 46 | 0.0 | 3.0 | 0.00 | 0.03 | 0.00 | 96 | 1010.1 |
| 20260507082229 | 58 | 338 | 2.0 | 5.0 | 0.00 | 0.03 | 0.00 | 96 | 1009.7 |
| 20260507081229 | 59 | 45 | 2.0 | 5.0 | 0.00 | 0.03 | 0.00 | 97 | 1009.7 |
| 20260507075230 | 59 | 22 | 0.0 | 1.0 | 0.00 | 0.03 | 0.00 | 96 | 1009.7 |
| 20260507074247 | 59 | 45 | 1.0 | 4.0 | 0.00 | 0.03 | 0.00 | 95 | 1009.7 |
| 20260507073330 | 59 | 45 | 0.0 | 2.0 | 0.00 | 0.03 | 0.00 | 95 | 1009.7 |
| 20260507072332 | 59 | 67 | 2.0 | 3.0 | 0.00 | 0.03 | 0.00 | 94 | 1009.5 |
| 20260507071330 | 59 | 47 | 3.0 | 5.0 | 0.00 | 0.03 | 0.00 | 94 | 1009.7 |
| 20260507070429 | 59 | 53 | 3.0 | 5.0 | 0.00 | 0.03 | 0.00 | 94 | 1009.7 |
| 20260507065430 | 59 | 41 | 4.0 | 6.0 | 0.00 | 0.03 | 0.00 | 93 | 1009.4 |
| 20260507064430 | 60 | 36 | 0.0 | 3.0 | 0.00 | 0.03 | 0.00 | 93 | 1009.4 |
| 20260507063432 | 60 | 19 | 3.0 | 7.0 | 0.00 | 0.03 | 0.00 | 92 | 1009.0 |
| 20260507062431 | 60 | 67 | 3.0 | 6.0 | 0.00 | 0.03 | 0.00 | 92 | 1009.0 |
| 20260507061432 | 60 | 58 | 3.0 | 6.0 | 0.00 | 0.03 | 0.00 | 92 | 1009.7 |
| 20260507060529 | 59 | 67 | 2.0 | 4.0 | 0.00 | 0.03 | 0.00 | 91 | 1009.4 |
| 20260507055529 | 60 | 45 | 1.0 | 4.0 | 0.00 | 0.03 | 0.00 | 92 | 1009.4 |
| 20260507054530 | 60 | 51 | 3.0 | 8.0 | 0.00 | 0.03 | 0.00 | 92 | 1009.7 |
| 20260507052631 | 60 | 46 | 2.0 | 5.0 | 0.00 | 0.03 | 0.00 | 92 | 1009.4 |
| 20260507051631 | 60 | 39 | 3.0 | 5.0 | 0.00 | 0.03 | 0.00 | 92 | 1009.4 |
| 20260507045641 | 60 | 58 | 3.0 | 6.0 | 0.00 | 0.03 | 0.03 | 92 | 1009.4 |
| 20260507044641 | 60 | 47 | 3.0 | 5.0 | 0.00 | 0.03 | 0.03 | 92 | 1009.0 |
| 20260507042642 | 61 | 34 | 3.0 | 5.0 | 0.00 | 0.03 | 0.03 | 93 | 1009.4 |
| 20260507041643 | 61 | 40 | 4.0 | 11.0 | 0.00 | 0.03 | 0.03 | 93 | 1009.0 |
| 20260507040644 | 61 | 12 | 1.0 | 3.0 | 0.00 | 0.03 | 0.03 | 93 | 1009.0 |
| 20260507035642 | 61 | 360 | 0.0 | 3.0 | 0.00 | 0.03 | 0.03 | 93 | 1009.0 |
| 20260507034643 | 61 | 34 | 3.0 | 6.0 | 0.00 | 0.03 | 0.03 | 93 | 1009.0 |
| 20260507033642 | 61 | 33 | 4.0 | 9.0 | 0.00 | 0.03 | 0.03 | 93 | 1009.4 |
| 20260507032642 | 61 | 36 | 3.0 | 6.0 | 0.00 | 0.03 | 0.03 | 93 | 1009.0 |
| 20260507031642 | 60 | 42 | 4.0 | 6.0 | 0.00 | 0.03 | 0.03 | 91 | 1009.0 |
| 20260507030642 | 61 | 3 | 4.0 | 6.0 | 0.00 | 0.03 | 0.03 | 92 | 1009.0 |
| 20260507025640 | 61 | 14 | 4.0 | 7.0 | 0.00 | 0.03 | 0.03 | 92 | 1008.7 |
| 20260507024645 | 61 | 53 | 2.0 | 3.0 | 0.00 | 0.03 | 0.03 | 92 | 1008.3 |
| 20260507023740 | 62 | 337 | 2.0 | 4.0 | 0.00 | 0.03 | 0.03 | 92 | 1008.3 |
| 20260507020743 | 62 | 353 | 3.0 | 8.0 | 0.00 | 0.03 | 0.03 | 92 | 1008.0 |
| 20260507015742 | 62 | 360 | 0.0 | 1.0 | 0.00 | 0.03 | 0.03 | 92 | 1007.6 |
| 20260507014741 | 62 | 8 | 3.0 | 5.0 | 0.00 | 0.03 | 0.03 | 91 | 1007.6 |
| 20260507013840 | 62 | 18 | 2.0 | 4.0 | 0.00 | 0.03 | 0.03 | 91 | 1007.3 |
| 20260507012843 | 62 | 1 | 1.0 | 5.0 | 0.00 | 0.03 | 0.03 | 90 | 1007.3 |
| 20260507011942 | 62 | 45 | 0.0 | 3.0 | 0.00 | 0.03 | 0.03 | 90 | 1006.9 |
| 20260507010042 | 61 | 337 | 5.0 | 9.0 | 0.00 | 0.03 | 0.03 | 89 | 1006.9 |
| 20260507005042 | 62 | 19 | 4.0 | 8.0 | 0.00 | 0.03 | 0.03 | 90 | 1006.2 |
| 20260507004042 | 62 | 35 | 3.0 | 6.0 | 0.00 | 0.03 | 0.03 | 89 | 1006.6 |
| 20260507003042 | 62 | 19 | 2.0 | 6.0 | 0.00 | 0.03 | 0.03 | 89 | 1006.6 |
| 20260507002140 | 62 | 5 | 2.0 | 5.0 | 0.00 | 0.03 | 0.03 | 89 | 1006.2 |
| 20260507001240 | 62 | 353 | 3.0 | 8.0 | 0.00 | 0.03 | 0.03 | 90 | 1006.6 |
| 20260507000242 | 62 | 31 | 2.0 | 8.0 | 0.00 | 0.03 | 0.03 | 89 | 1006.2 |
| 20260506235242 | 62 | 339 | 0.0 | 4.0 | 0.00 | 0.03 | 0.03 | 89 | 1006.6 |
| 20260506234241 | 62 | 3 | 5.0 | 11.0 | 0.00 | 0.03 | 0.03 | 89 | 1006.2 |
| 20260506233243 | 62 | 38 | 4.0 | 11.0 | 0.00 | 0.03 | 0.03 | 88 | 1006.2 |
| 20260506232342 | 62 | 360 | 3.0 | 8.0 | 0.00 | 0.03 | 0.03 | 88 | 1006.2 |
| 20260506231440 | 62 | 18 | 4.0 | 12.0 | 0.00 | 0.03 | 0.03 | 87 | 1006.2 |
| 20260506230442 | 63 | 5 | 2.0 | 6.0 | 0.00 | 0.03 | 0.03 | 86 | 1006.2 |
| 20260506225442 | 63 | 42 | 3.0 | 6.0 | 0.00 | 0.03 | 0.03 | 86 | 1006.2 |
| 20260506224442 | 63 | 30 | 5.0 | 10.0 | 0.00 | 0.03 | 0.03 | 84 | 1006.2 |
| 20260506223442 | 64 | 20 | 6.0 | 13.0 | 0.00 | 0.03 | 0.03 | 83 | 1006.2 |
| 20260506222442 | 65 | 347 | 2.0 | 5.0 | 0.00 | 0.03 | 0.03 | 82 | 1005.9 |
| 20260506221541 | 65 | 26 | 2.0 | 5.0 | 0.00 | 0.03 | 0.03 | 81 | 1005.9 |
| 20260506220542 | 66 | 53 | 4.0 | 6.0 | 0.00 | 0.03 | 0.03 | 79 | 1006.2 |
| 20260506215640 | 67 | 358 | 6.0 | 11.0 | 0.00 | 0.03 | 0.03 | 77 | 1005.9 |
| 20260506214644 | 68 | 4 | 5.0 | 13.0 | 0.00 | 0.03 | 0.03 | 76 | 1005.6 |
| 20260506213640 | 68 | 61 | 4.0 | 8.0 | 0.00 | 0.03 | 0.03 | 76 | 1005.6 |
| 20260506213544 | 68 | 57 | 2.0 | 7.0 | 0.00 | 0.03 | 0.03 | 76 | 1005.6 |
| 20260506212542 | 68 | 37 | 3.0 | 6.0 | 0.00 | 0.03 | 0.03 | 75 | 1005.9 |
| 20260506211641 | 69 | 6 | 3.0 | 10.0 | 0.00 | 0.03 | 0.03 | 75 | 1004.9 |
| 20260506210641 | 69 | 52 | 5.0 | 8.0 | 0.00 | 0.03 | 0.03 | 75 | 1005.2 |
| 20260506205642 | 71 | 10 | 5.0 | 9.0 | 0.00 | 0.03 | 0.03 | 71 | 1004.9 |
| 20260506203642 | 71 | 351 | 4.0 | 8.0 | 0.00 | 0.03 | 0.03 | 75 | 1005.2 |
| 20260506202639 | 70 | 19 | 5.0 | 8.0 | 0.00 | 0.03 | 0.03 | 78 | 1005.2 |
| 20260506201739 | 69 | 40 | 4.0 | 7.0 | 0.00 | 0.03 | 0.03 | 81 | 1004.9 |
| 20260506200742 | 69 | 21 | 5.0 | 10.0 | 0.00 | 0.03 | 0.03 | 81 | 1004.9 |
| 20260506194841 | 73 | 60 | 5.0 | 8.0 | 0.00 | 0.03 | 0.03 | 79 | 1004.2 |
| 20260506193940 | 73 | 1 | 1.0 | 5.0 | 0.00 | 0.03 | 0.03 | 80 | 1004.2 |
| 20260506192941 | 74 | 356 | 3.0 | 7.0 | 0.00 | 0.03 | 0.03 | 78 | 1003.8 |
| 20260506191039 | 75 | 352 | 3.0 | 6.0 | 0.00 | 0.03 | 0.03 | 77 | 1004.2 |
| 20260506190042 | 76 | 22 | 3.0 | 6.0 | 0.00 | 0.03 | 0.03 | 75 | 1003.8 |
| 20260506185042 | 76 | 55 | 2.0 | 6.0 | 0.00 | 0.03 | 0.03 | 76 | 1003.5 |
| 20260506184140 | 76 | 328 | 1.0 | 6.0 | 0.00 | 0.03 | 0.03 | 77 | 1004.2 |
| 20260506183140 | 75 | 47 | 2.0 | 5.0 | 0.00 | 0.03 | 0.03 | 80 | 1004.2 |
| 20260506182239 | 74 | 67 | 0.0 | 3.0 | 0.00 | 0.03 | 0.03 | 83 | 1004.2 |
| 20260506181241 | 73 | 40 | 0.0 | 1.0 | 0.00 | 0.03 | 0.03 | 84 | 1004.2 |
| 20260506180241 | 72 | 22 | 0.0 | 0.0 | 0.00 | 0.03 | 0.03 | 84 | 1004.2 |
| 20260506175243 | 71 | 45 | 1.0 | 4.0 | 0.00 | 0.03 | 0.03 | 91 | 1004.5 |
| 20260506174341 | 70 | 322 | 0.0 | 2.0 | 0.00 | 0.03 | 0.03 | 93 | 1004.7 |
| 20260506173341 | 67 | 24 | 0.0 | 4.0 | 0.02 | 0.03 | 0.03 | 97 | 1005.5 |
| 20260506171342 | 65 | 22 | 3.0 | 6.0 | 0.03 | 0.03 | 0.03 | 95 | 1005.6 |
| 20260506165342 | 63 | 63 | 6.0 | 9.0 | 0.03 | 0.03 | 0.03 | 89 | 1006.1 |
| 20260506164341 | 62 | 51 | 3.0 | 5.0 | 0.03 | 0.03 | 0.03 | 90 | 1006.2 |